createdAt,value
2023-05-07T00:03:14.664Z,95.31
2023-05-07T00:08:39.519Z,95.10
2023-05-07T00:13:31.891Z,95.01
2023-05-07T00:18:31.827Z,95.51
2023-05-07T00:23:31.767Z,95.97
2023-05-07T00:28:31.680Z,95.62
2023-05-07T00:33:31.631Z,95.86
2023-05-07T00:38:31.554Z,96.07
2023-05-07T00:43:31.493Z,96.58
2023-05-07T00:48:31.410Z,96.98
2023-05-07T00:53:31.401Z,96.02
2023-05-07T00:58:31.291Z,96.33
2023-05-07T01:03:31.225Z,96.43
2023-05-07T01:08:31.139Z,95.62
2023-05-07T01:13:31.102Z,94.66
2023-05-07T01:18:31.023Z,94.45
2023-05-07T01:23:30.973Z,94.56
2023-05-07T01:28:30.907Z,94.35
2023-05-07T01:33:30.828Z,95.57
2023-05-07T01:38:30.766Z,96.02
2023-05-07T01:43:30.719Z,96.83
2023-05-07T01:48:30.631Z,97.04
2023-05-07T01:53:30.562Z,96.63
2023-05-07T01:58:30.483Z,95.92
2023-05-07T02:03:30.508Z,95.92
2023-05-07T02:08:30.346Z,96.18
2023-05-07T02:13:30.319Z,96.94
2023-05-07T02:18:30.227Z,96.53
2023-05-07T02:23:30.166Z,96.08
2023-05-07T02:28:30.120Z,97.04
2023-05-07T02:33:30.043Z,96.53
2023-05-07T02:38:29.977Z,98.66
2023-05-07T02:43:29.917Z,98.72
2023-05-07T02:48:30.556Z,98.32
2023-05-07T02:53:29.758Z,97.71
2023-05-07T02:58:29.693Z,97.55
2023-05-07T03:03:29.666Z,98.16
2023-05-07T03:08:29.553Z,98.50
2023-05-07T03:13:29.525Z,98.20
2023-05-07T03:18:29.440Z,97.60
2023-05-07T03:23:29.405Z,97.29
2023-05-07T03:28:29.310Z,97.80
2023-05-07T03:33:29.232Z,97.80
2023-05-07T03:38:29.158Z,97.60
2023-05-07T03:43:29.124Z,97.69
2023-05-07T03:48:29.016Z,97.39
2023-05-07T03:53:28.985Z,96.78
2023-05-07T03:58:28.889Z,97.03
2023-05-07T04:03:28.890Z,97.64
2023-05-07T04:08:28.753Z,97.44
2023-05-07T04:13:28.690Z,97.49
2023-05-07T04:18:28.643Z,97.49
2023-05-07T04:23:28.583Z,97.49
2023-05-07T04:28:28.519Z,97.80
2023-05-07T04:33:28.464Z,97.69
2023-05-07T04:38:28.379Z,96.94
2023-05-07T04:43:28.276Z,96.53
2023-05-07T04:48:28.236Z,95.87
2023-05-07T04:53:28.181Z,96.08
2023-05-07T04:58:28.101Z,96.14
2023-05-07T05:03:28.136Z,96.18
2023-05-07T05:08:27.975Z,96.69
2023-05-07T05:13:27.922Z,96.23
2023-05-07T05:18:27.857Z,95.94
2023-05-07T05:23:27.792Z,94.46
2023-05-07T05:28:27.695Z,95.48
2023-05-07T05:33:27.646Z,94.22
2023-05-07T05:38:27.564Z,92.55
2023-05-07T05:43:27.530Z,92.41
2023-05-07T05:48:27.412Z,92.71
2023-05-07T05:53:27.367Z,92.31
2023-05-07T05:58:27.315Z,92.00
2023-05-07T06:03:38.410Z,91.66
2023-05-07T06:08:30.691Z,89.95
2023-05-07T06:13:30.769Z,87.54
2023-05-07T06:18:30.543Z,85.19
2023-05-07T06:23:30.481Z,82.35
2023-05-07T06:28:30.422Z,81.55
2023-05-07T06:33:30.367Z,81.10
2023-05-07T06:38:30.278Z,79.42
2023-05-07T06:43:30.206Z,79.46
2023-05-07T06:48:30.136Z,82.62
2023-05-07T06:53:30.060Z,83.12
2023-05-07T06:58:30.033Z,84.23
2023-05-07T07:03:29.954Z,82.88
2023-05-07T07:08:29.887Z,81.87
2023-05-07T07:13:29.829Z,81.27
2023-05-07T07:18:29.763Z,82.96
2023-05-07T07:23:29.670Z,84.23
2023-05-07T07:28:29.648Z,82.82
2023-05-07T07:33:29.590Z,83.06
2023-05-07T07:38:29.483Z,84.67
2023-05-07T07:43:30.414Z,82.98
2023-05-07T07:48:29.340Z,82.98
2023-05-07T07:53:29.297Z,81.65
2023-05-07T07:58:29.238Z,77.62
2023-05-07T08:03:29.176Z,76.65
2023-05-07T08:08:29.174Z,77.72
2023-05-07T08:13:29.047Z,78.05
2023-05-07T08:18:28.956Z,76.28
2023-05-07T08:23:28.888Z,77.45
2023-05-07T08:28:28.906Z,74.00
2023-05-07T08:33:28.752Z,73.63
2023-05-07T08:38:28.699Z,65.08
2023-05-07T08:43:28.614Z,58.74
2023-05-07T08:48:28.572Z,59.36
2023-05-07T08:53:28.550Z,59.30
2023-05-07T08:58:28.523Z,64.72
2023-05-07T09:03:28.371Z,61.04
2023-05-07T09:08:28.330Z,58.78
2023-05-07T09:13:28.278Z,58.75
2023-05-07T09:18:28.189Z,56.49
2023-05-07T09:23:28.131Z,52.91
2023-05-07T09:28:28.122Z,51.50
2023-05-07T09:33:28.027Z,51.37
2023-05-07T09:38:27.971Z,54.50
2023-05-07T09:43:27.845Z,50.41
2023-05-07T09:48:29.436Z,50.09
2023-05-07T09:53:27.714Z,47.34
2023-05-07T09:58:27.688Z,47.44
2023-05-07T10:03:27.655Z,47.06
2023-05-07T10:08:27.637Z,41.62
2023-05-07T10:13:27.559Z,46.12
2023-05-07T10:18:27.508Z,47.97
2023-05-07T10:23:27.313Z,45.17
2023-05-07T10:28:27.319Z,43.73
2023-05-07T10:33:27.218Z,42.21
2023-05-07T10:38:27.135Z,42.29
2023-05-07T10:43:27.144Z,42.29
2023-05-07T10:48:29.565Z,41.84
2023-05-07T10:53:26.955Z,40.39
2023-05-07T10:58:31.968Z,39.40
2023-05-07T11:03:27.836Z,42.38
2023-05-07T11:08:26.773Z,42.83
2023-05-07T11:13:26.714Z,45.09
2023-05-07T11:18:26.662Z,43.29
2023-05-07T11:23:26.558Z,48.40
2023-05-07T11:28:26.506Z,45.70
2023-05-07T11:33:26.455Z,46.58
2023-05-07T11:38:26.364Z,46.60
2023-05-07T11:43:26.309Z,43.37
2023-05-07T11:48:26.237Z,43.59
2023-05-07T11:53:26.200Z,46.42
2023-05-07T11:58:26.140Z,47.78
2023-05-07T12:03:26.935Z,49.34
2023-05-07T12:08:25.978Z,47.63
2023-05-07T12:13:25.998Z,50.41
2023-05-07T12:18:25.854Z,50.83
2023-05-07T12:23:25.795Z,50.36
2023-05-07T12:28:25.734Z,48.50
2023-05-07T12:33:25.657Z,46.01
2023-05-07T12:38:25.621Z,45.14
2023-05-07T12:43:25.522Z,47.31
2023-05-07T12:48:25.488Z,50.38
2023-05-07T12:53:25.413Z,51.52
2023-05-07T12:58:25.360Z,52.74
2023-05-07T13:03:25.387Z,52.97
2023-05-07T13:08:25.208Z,54.88
2023-05-07T13:13:25.189Z,54.83
2023-05-07T13:18:25.180Z,62.34
2023-05-07T13:23:25.007Z,65.73
2023-05-07T13:28:24.950Z,72.13
2023-05-07T13:33:24.893Z,74.46
2023-05-07T13:38:25.066Z,73.60
2023-05-07T13:43:24.781Z,77.44
2023-05-07T13:48:24.671Z,84.39
2023-05-07T13:53:24.657Z,87.34
2023-05-07T13:58:24.551Z,88.68
2023-05-07T14:03:24.885Z,87.55
2023-05-07T14:08:24.407Z,85.73
2023-05-07T14:13:24.454Z,89.05
2023-05-07T14:18:24.270Z,84.73
2023-05-07T14:23:24.231Z,76.24
2023-05-07T14:28:24.181Z,74.77
2023-05-07T14:33:24.098Z,75.33
2023-05-07T14:38:24.023Z,70.29
2023-05-07T14:43:23.976Z,73.05
2023-05-07T14:48:23.874Z,71.56
2023-05-07T14:53:23.835Z,75.82
2023-05-07T14:58:23.713Z,76.86
2023-05-07T15:03:23.763Z,77.09
2023-05-07T15:08:23.690Z,77.19
2023-05-07T15:13:23.623Z,77.53
2023-05-07T15:18:23.475Z,77.49
2023-05-07T15:23:23.439Z,75.76
2023-05-07T15:28:23.382Z,76.67
2023-05-07T15:33:23.307Z,76.56
2023-05-07T15:38:23.208Z,75.00
2023-05-07T15:43:23.176Z,75.74
2023-05-07T15:48:23.107Z,74.54
2023-05-07T15:53:23.090Z,74.67
2023-05-07T15:58:23.255Z,74.67
2023-05-07T16:03:23.051Z,74.80
2023-05-07T16:08:22.823Z,74.60
2023-05-07T16:13:22.810Z,73.03
2023-05-07T16:18:22.689Z,74.04
2023-05-07T16:23:22.683Z,75.08
2023-05-07T16:28:24.170Z,75.68
2023-05-07T16:33:22.575Z,76.98
2023-05-07T16:38:22.470Z,82.04
2023-05-07T16:43:22.369Z,79.37
2023-05-07T16:48:22.332Z,81.92
2023-05-07T16:53:22.270Z,86.72
2023-05-07T16:58:22.161Z,90.73
2023-05-07T17:03:22.253Z,94.39
2023-05-07T17:08:22.036Z,96.05
2023-05-07T17:13:22.029Z,96.80
2023-05-07T17:18:21.967Z,97.71
2023-05-07T17:23:21.904Z,96.65
2023-05-07T17:28:21.816Z,96.34
2023-05-07T17:33:22.377Z,95.92
2023-05-07T17:38:21.632Z,98.05
2023-05-07T17:43:21.600Z,97.74
2023-05-07T17:48:21.522Z,96.33
2023-05-07T17:53:21.459Z,98.29
2023-05-07T17:58:21.496Z,99.55
2023-05-07T18:03:21.394Z,99.99
2023-05-07T18:08:21.277Z,99.99
2023-05-07T18:13:21.341Z,99.99
2023-05-07T18:18:21.172Z,99.99
2023-05-07T18:23:21.047Z,99.99
2023-05-07T18:28:21.100Z,99.99
2023-05-07T18:33:20.919Z,99.99
2023-05-07T18:38:21.208Z,99.99
2023-05-07T18:43:20.752Z,99.99
2023-05-07T18:48:20.709Z,99.99
2023-05-07T18:53:20.769Z,99.99
2023-05-07T18:58:20.662Z,99.99
2023-05-07T19:03:20.510Z,99.51
2023-05-07T19:08:20.486Z,99.99
2023-05-07T19:13:20.410Z,99.99
2023-05-07T19:18:20.326Z,99.99
2023-05-07T19:23:20.273Z,99.99
2023-05-07T19:28:20.219Z,99.99
2023-05-07T19:33:20.097Z,99.99
2023-05-07T19:38:20.120Z,99.99
2023-05-07T19:43:19.986Z,99.99
2023-05-07T19:48:19.938Z,99.99
2023-05-07T19:53:19.822Z,99.99
2023-05-07T19:58:19.877Z,99.99
2023-05-07T20:03:19.801Z,99.99
2023-05-07T20:08:19.693Z,99.99
2023-05-07T20:13:19.638Z,99.99
2023-05-07T20:18:19.541Z,99.99
2023-05-07T20:23:19.464Z,99.99
2023-05-07T20:28:19.501Z,99.99
2023-05-07T20:33:19.339Z,99.99
2023-05-07T20:38:19.313Z,99.99
2023-05-07T20:43:19.184Z,99.99
2023-05-07T20:48:19.131Z,99.99
2023-05-07T20:53:19.024Z,99.99
2023-05-07T20:58:18.977Z,99.65
2023-05-07T21:03:18.914Z,99.99
2023-05-07T21:08:18.849Z,99.65
2023-05-07T21:13:18.904Z,99.99
2023-05-07T21:18:18.813Z,99.99
2023-05-07T21:23:18.642Z,99.95
2023-05-07T21:28:18.695Z,99.99
2023-05-07T21:33:18.543Z,99.99
2023-05-07T21:38:18.464Z,99.85
2023-05-07T21:43:18.363Z,99.99
2023-05-07T21:48:18.311Z,99.99
2023-05-07T21:53:18.257Z,99.95
2023-05-07T21:58:18.184Z,99.99
2023-05-07T22:03:18.216Z,99.99
2023-05-07T22:08:18.030Z,99.99
2023-05-07T22:13:17.986Z,99.99
2023-05-07T22:18:17.912Z,99.99
2023-05-07T22:23:17.824Z,99.99
2023-05-07T22:28:17.776Z,99.99
2023-05-07T22:33:17.702Z,99.99
2023-05-07T22:38:17.650Z,99.99
2023-05-07T22:43:17.547Z,99.99
2023-05-07T22:48:17.516Z,99.99
2023-05-07T22:53:17.458Z,99.99
2023-05-07T22:58:17.413Z,99.99
2023-05-07T23:03:17.398Z,99.99
2023-05-07T23:08:17.246Z,99.99
2023-05-07T23:13:17.544Z,99.99
2023-05-07T23:18:17.099Z,99.99
2023-05-07T23:23:17.182Z,99.99
2023-05-07T23:28:16.987Z,99.99
2023-05-07T23:33:16.900Z,99.99
2023-05-07T23:38:16.840Z,99.99
2023-05-07T23:43:16.768Z,99.99
2023-05-07T23:48:16.730Z,99.99
2023-05-07T23:53:16.613Z,99.99
2023-05-07T23:58:16.586Z,99.99
